sensor_id;sensor_type;location;lat;lon;timestamp;pressure;altitude;pressure_sealevel;temperature;humidity
50093;BME280;35974;47.752;10.290;2023-04-25T00:00:48;93268.19;;;6.26;100.00
50093;BME280;35974;47.752;10.290;2023-04-25T00:03:15;93276.75;;;6.20;100.00
50093;BME280;35974;47.752;10.290;2023-04-25T00:05:42;93269.91;;;6.12;100.00
50093;BME280;35974;47.752;10.290;2023-04-25T00:08:09;93276.78;;;6.27;100.00
50093;BME280;35974;47.752;10.290;2023-04-25T00:10:35;93271.00;;;6.31;100.00
50093;BME280;35974;47.752;10.290;2023-04-25T00:13:02;93270.00;;;6.26;100.00
50093;BME280;35974;47.752;10.290;2023-04-25T00:15:28;93276.78;;;6.27;100.00
50093;BME280;35974;47.752;10.290;2023-04-25T00:17:58;93272.16;;;6.64;100.00
50093;BME280;35974;47.752;10.290;2023-04-25T00:20:24;93268.06;;;6.41;100.00
50093;BME280;35974;47.752;10.290;2023-04-25T00:22:51;93272.47;;;6.40;100.00
50093;BME280;35974;47.752;10.290;2023-04-25T00:25:19;93264.47;;;6.35;100.00
50093;BME280;35974;47.752;10.290;2023-04-25T00:27:45;93268.25;;;6.39;100.00
50093;BME280;35974;47.752;10.290;2023-04-25T00:30:12;93268.00;;;6.28;100.00
50093;BME280;35974;47.752;10.290;2023-04-25T00:32:38;93261.06;;;6.00;100.00
50093;BME280;35974;47.752;10.290;2023-04-25T00:35:05;93263.88;;;6.05;100.00
50093;BME280;35974;47.752;10.290;2023-04-25T00:37:32;93269.25;;;6.38;100.00
50093;BME280;35974;47.752;10.290;2023-04-25T00:40:07;93265.56;;;6.19;100.00
50093;BME280;35974;47.752;10.290;2023-04-25T00:42:40;93262.38;;;6.17;100.00
50093;BME280;35974;47.752;10.290;2023-04-25T00:45:07;93255.88;;;6.00;100.00
50093;BME280;35974;47.752;10.290;2023-04-25T00:47:36;93257.63;;;5.71;100.00
50093;BME280;35974;47.752;10.290;2023-04-25T00:50:03;93253.19;;;5.65;100.00
50093;BME280;35974;47.752;10.290;2023-04-25T00:52:30;93252.44;;;5.71;100.00
50093;BME280;35974;47.752;10.290;2023-04-25T00:54:57;93249.63;;;5.66;100.00
50093;BME280;35974;47.752;10.290;2023-04-25T00:57:23;93241.81;;;5.94;100.00
50093;BME280;35974;47.752;10.290;2023-04-25T00:59:50;93234.72;;;6.03;100.00
50093;BME280;35974;47.752;10.290;2023-04-25T01:02:17;93243.09;;;6.05;100.00
50093;BME280;35974;47.752;10.290;2023-04-25T01:04:43;93247.88;;;6.01;100.00
50093;BME280;35974;47.752;10.290;2023-04-25T01:07:10;93243.94;;;5.84;100.00
50093;BME280;35974;47.752;10.290;2023-04-25T01:09:36;93237.72;;;5.78;100.00
50093;BME280;35974;47.752;10.290;2023-04-25T01:12:03;93238.78;;;5.56;100.00
50093;BME280;35974;47.752;10.290;2023-04-25T01:14:29;93230.97;;;5.84;100.00
50093;BME280;35974;47.752;10.290;2023-04-25T01:17:10;93228.47;;;5.69;100.00
50093;BME280;35974;47.752;10.290;2023-04-25T01:19:36;93230.72;;;5.50;100.00
50093;BME280;35974;47.752;10.290;2023-04-25T01:22:03;93224.78;;;5.57;100.00
50093;BME280;35974;47.752;10.290;2023-04-25T01:24:32;93224.03;;;5.63;100.00
50093;BME280;35974;47.752;10.290;2023-04-25T01:26:59;93228.47;;;5.69;100.00
50093;BME280;35974;47.752;10.290;2023-04-25T01:29:26;93225.44;;;5.37;100.00
50093;BME280;35974;47.752;10.290;2023-04-25T01:31:53;93227.06;;;5.38;100.00
50093;BME280;35974;47.752;10.290;2023-04-25T01:34:19;93225.63;;;5.36;100.00
50093;BME280;35974;47.752;10.290;2023-04-25T01:36:47;93216.47;;;5.68;100.00
50093;BME280;35974;47.752;10.290;2023-04-25T01:39:15;93227.06;;;5.38;100.00
50093;BME280;35974;47.752;10.290;2023-04-25T01:41:41;93216.19;;;5.28;100.00
50093;BME280;35974;47.752;10.290;2023-04-25T01:44:08;93212.69;;;5.42;100.00
50093;BME280;35974;47.752;10.290;2023-04-25T01:46:44;93206.63;;;5.28;100.00
50093;BME280;35974;47.752;10.290;2023-04-25T01:49:10;93197.38;;;5.47;100.00
50093;BME280;35974;47.752;10.290;2023-04-25T01:51:38;93196.00;;;5.52;100.00
50093;BME280;35974;47.752;10.290;2023-04-25T01:54:05;93200.13;;;5.67;100.00
50093;BME280;35974;47.752;10.290;2023-04-25T01:56:32;93201.75;;;5.75;100.00
50093;BME280;35974;47.752;10.290;2023-04-25T01:58:59;93204.09;;;5.70;100.00
50093;BME280;35974;47.752;10.290;2023-04-25T02:01:25;93208.91;;;5.73;100.00
50093;BME280;35974;47.752;10.290;2023-04-25T02:03:51;93206.84;;;5.90;100.00
50093;BME280;35974;47.752;10.290;2023-04-25T02:06:18;93209.13;;;6.00;100.00
50093;BME280;35974;47.752;10.290;2023-04-25T02:08:45;93208.34;;;6.06;100.00
50093;BME280;35974;47.752;10.290;2023-04-25T02:11:11;93204.78;;;6.14;100.00
50093;BME280;35974;47.752;10.290;2023-04-25T02:13:37;93207.47;;;6.34;100.00
50093;BME280;35974;47.752;10.290;2023-04-25T02:16:04;93213.63;;;6.19;100.00
50093;BME280;35974;47.752;10.290;2023-04-25T02:18:30;93213.00;;;6.17;100.00
50093;BME280;35974;47.752;10.290;2023-04-25T02:20:58;93222.13;;;5.78;100.00
50093;BME280;35974;47.752;10.290;2023-04-25T02:23:25;93219.53;;;5.00;100.00
50093;BME280;35974;47.752;10.290;2023-04-25T02:25:51;93227.81;;;4.89;100.00
50093;BME280;35974;47.752;10.290;2023-04-25T02:28:18;93222.38;;;4.62;100.00
50093;BME280;35974;47.752;10.290;2023-04-25T02:30:44;93213.59;;;4.27;100.00
50093;BME280;35974;47.752;10.290;2023-04-25T02:33:10;93196.00;;;4.22;100.00
50093;BME280;35974;47.752;10.290;2023-04-25T02:35:37;93207.63;;;4.26;100.00
50093;BME280;35974;47.752;10.290;2023-04-25T02:38:03;93210.66;;;4.15;100.00
50093;BME280;35974;47.752;10.290;2023-04-25T02:40:29;93201.66;;;4.11;100.00
50093;BME280;35974;47.752;10.290;2023-04-25T02:42:56;93194.41;;;4.21;100.00
50093;BME280;35974;47.752;10.290;2023-04-25T02:45:22;93214.38;;;4.27;100.00
50093;BME280;35974;47.752;10.290;2023-04-25T02:47:48;93203.59;;;4.24;100.00
50093;BME280;35974;47.752;10.290;2023-04-25T02:50:15;93192.94;;;4.33;100.00
50093;BME280;35974;47.752;10.290;2023-04-25T02:52:41;93196.69;;;4.46;100.00
50093;BME280;35974;47.752;10.290;2023-04-25T02:55:08;93192.72;;;4.50;100.00
50093;BME280;35974;47.752;10.290;2023-04-25T02:57:47;93196.53;;;4.32;100.00
50093;BME280;35974;47.752;10.290;2023-04-25T03:00:13;93194.19;;;4.37;100.00
50093;BME280;35974;47.752;10.290;2023-04-25T03:02:40;93191.72;;;4.29;100.00
50093;BME280;35974;47.752;10.290;2023-04-25T03:05:06;93189.81;;;4.38;100.00
50093;BME280;35974;47.752;10.290;2023-04-25T03:07:33;93190.25;;;4.42;100.00
50093;BME280;35974;47.752;10.290;2023-04-25T03:09:59;93195.28;;;4.28;100.00
50093;BME280;35974;47.752;10.290;2023-04-25T03:12:25;93198.06;;;4.63;100.00
50093;BME280;35974;47.752;10.290;2023-04-25T03:14:52;93209.88;;;4.51;100.00
50093;BME280;35974;47.752;10.290;2023-04-25T03:17:18;93199.53;;;4.51;100.00
50093;BME280;35974;47.752;10.290;2023-04-25T03:19:44;93189.88;;;4.45;100.00
50093;BME280;35974;47.752;10.290;2023-04-25T03:22:11;93202.22;;;4.43;100.00
50093;BME280;35974;47.752;10.290;2023-04-25T03:24:37;93187.53;;;4.50;100.00
50093;BME280;35974;47.752;10.290;2023-04-25T03:27:04;93184.47;;;4.61;100.00
50093;BME280;35974;47.752;10.290;2023-04-25T03:29:30;93177.69;;;4.60;100.00
50093;BME280;35974;47.752;10.290;2023-04-25T03:31:56;93175.72;;;4.62;100.00
50093;BME280;35974;47.752;10.290;2023-04-25T03:34:23;93180.28;;;4.82;100.00
50093;BME280;35974;47.752;10.290;2023-04-25T03:36:50;93186.94;;;4.69;100.00
50093;BME280;35974;47.752;10.290;2023-04-25T03:39:16;93187.53;;;4.50;100.00
50093;BME280;35974;47.752;10.290;2023-04-25T03:41:42;93193.31;;;4.30;100.00
50093;BME280;35974;47.752;10.290;2023-04-25T03:44:09;93188.88;;;4.24;100.00
50093;BME280;35974;47.752;10.290;2023-04-25T03:46:35;93186.53;;;4.29;100.00
50093;BME280;35974;47.752;10.290;2023-04-25T03:49:03;93179.75;;;4.28;100.00
50093;BME280;35974;47.752;10.290;2023-04-25T03:51:30;93181.00;;;4.32;100.00
50093;BME280;35974;47.752;10.290;2023-04-25T03:53:57;93184.31;;;4.26;100.00
50093;BME280;35974;47.752;10.290;2023-04-25T03:56:24;93182.66;;;4.40;100.00
50093;BME280;35974;47.752;10.290;2023-04-25T03:58:50;93193.25;;;4.60;100.00
50093;BME280;35974;47.752;10.290;2023-04-25T04:01:17;93188.06;;;4.60;100.00
50093;BME280;35974;47.752;10.290;2023-04-25T04:03:43;93188.91;;;4.67;100.00
50093;BME280;35974;47.752;10.290;2023-04-25T04:06:10;93193.38;;;4.73;100.00
50093;BME280;35974;47.752;10.290;2023-04-25T04:08:36;93194.47;;;4.64;100.00
50093;BME280;35974;47.752;10.290;2023-04-25T04:11:10;93198.97;;;4.77;100.00
50093;BME280;35974;47.752;10.290;2023-04-25T04:13:46;93200.09;;;4.68;100.00
50093;BME280;35974;47.752;10.290;2023-04-25T04:16:16;93193.97;;;4.75;100.00
50093;BME280;35974;47.752;10.290;2023-04-25T04:18:48;93205.13;;;4.91;100.00
50093;BME280;35974;47.752;10.290;2023-04-25T04:21:30;93194.75;;;4.91;100.00
50093;BME280;35974;47.752;10.290;2023-04-25T04:23:58;93205.13;;;4.91;100.00
50093;BME280;35974;47.752;10.290;2023-04-25T04:26:26;93201.09;;;4.88;100.00
50093;BME280;35974;47.752;10.290;2023-04-25T04:28:52;93192.75;;;4.93;100.00
50093;BME280;35974;47.752;10.290;2023-04-25T04:31:20;93205.09;;;5.12;100.00
50093;BME280;35974;47.752;10.290;2023-04-25T04:33:47;93202.88;;;5.09;100.00
50093;BME280;35974;47.752;10.290;2023-04-25T04:36:14;93203.50;;;4.90;100.00
50093;BME280;35974;47.752;10.290;2023-04-25T04:38:41;93210.66;;;5.09;100.00
50093;BME280;35974;47.752;10.290;2023-04-25T04:41:08;93205.84;;;4.85;100.00
50093;BME280;35974;47.752;10.290;2023-04-25T04:43:40;93209.53;;;4.97;100.00
50093;BME280;35974;47.752;10.290;2023-04-25T04:46:07;93213.59;;;5.28;100.00
50093;BME280;35974;47.752;10.290;2023-04-25T04:48:36;93208.38;;;5.00;100.00
50093;BME280;35974;47.752;10.290;2023-04-25T04:51:02;93212.88;;;5.12;100.00
50093;BME280;35974;47.752;10.290;2023-04-25T04:53:28;93212.88;;;5.12;100.00
50093;BME280;35974;47.752;10.290;2023-04-25T04:55:55;93209.66;;;5.10;100.00
50093;BME280;35974;47.752;10.290;2023-04-25T04:58:21;93216.13;;;5.21;100.00
50093;BME280;35974;47.752;10.290;2023-04-25T05:00:47;93214.84;;;5.10;100.00
50093;BME280;35974;47.752;10.290;2023-04-25T05:03:14;93208.78;;;5.03;100.00
50093;BME280;35974;47.752;10.290;2023-04-25T05:05:46;93204.63;;;5.30;100.00
50093;BME280;35974;47.752;10.290;2023-04-25T05:08:14;93209.50;;;5.40;100.00
50093;BME280;35974;47.752;10.290;2023-04-25T05:10:51;93216.19;;;5.28;100.00
50093;BME280;35974;47.752;10.290;2023-04-25T05:13:21;93207.41;;;5.29;100.00
50093;BME280;35974;47.752;10.290;2023-04-25T05:15:47;93197.50;;;5.39;100.00
50093;BME280;35974;47.752;10.290;2023-04-25T05:18:27;93201.56;;;5.48;100.00
50093;BME280;35974;47.752;10.290;2023-04-25T05:20:53;93200.88;;;5.33;100.00
50093;BME280;35974;47.752;10.290;2023-04-25T05:23:20;93199.50;;;5.37;100.00
50093;BME280;35974;47.752;10.290;2023-04-25T05:25:46;93203.66;;;5.60;100.00
50093;BME280;35974;47.752;10.290;2023-04-25T05:28:12;93196.00;;;5.52;100.00
50093;BME280;35974;47.752;10.290;2023-04-25T05:30:39;93192.06;;;5.56;100.00
50093;BME280;35974;47.752;10.290;2023-04-25T05:33:05;93199.97;;;5.47;100.00
50093;BME280;35974;47.752;10.290;2023-04-25T05:35:32;93192.81;;;5.49;100.00
50093;BME280;35974;47.752;10.290;2023-04-25T05:37:58;93197.94;;;5.71;100.00
50093;BME280;35974;47.752;10.290;2023-04-25T05:40:24;93200.97;;;5.81;100.00
50093;BME280;35974;47.752;10.290;2023-04-25T05:42:51;93199.81;;;5.84;100.00
50093;BME280;35974;47.752;10.290;2023-04-25T05:45:17;93198.22;;;5.90;100.00
50093;BME280;35974;47.752;10.290;2023-04-25T05:47:44;93196.22;;;5.85;100.00
50093;BME280;35974;47.752;10.290;2023-04-25T05:50:10;93188.50;;;5.63;100.00
50093;BME280;35974;47.752;10.290;2023-04-25T05:52:36;93189.00;;;5.80;100.00
50093;BME280;35974;47.752;10.290;2023-04-25T05:55:03;93191.44;;;5.89;100.00
50093;BME280;35974;47.752;10.290;2023-04-25T05:57:29;93191.53;;;6.02;100.00
50093;BME280;35974;47.752;10.290;2023-04-25T05:59:55;93188.25;;;5.86;100.00
50093;BME280;35974;47.752;10.290;2023-04-25T06:02:22;93189.47;;;5.91;100.00
50093;BME280;35974;47.752;10.290;2023-04-25T06:04:49;93190.59;;;5.81;100.00
50093;BME280;35974;47.752;10.290;2023-04-25T06:07:17;93192.56;;;5.73;100.00
50093;BME280;35974;47.752;10.290;2023-04-25T06:09:43;93190.78;;;6.08;100.00
50093;BME280;35974;47.752;10.290;2023-04-25T06:12:10;93189.94;;;6.01;100.00
50093;BME280;35974;47.752;10.290;2023-04-25T06:14:36;93178.19;;;6.05;100.00
50093;BME280;35974;47.752;10.290;2023-04-25T06:17:03;93191.69;;;5.94;100.00
50093;BME280;35974;47.752;10.290;2023-04-25T06:19:32;93188.34;;;6.00;100.00
50093;BME280;35974;47.752;10.290;2023-04-25T06:21:59;93194.28;;;5.94;100.00
50093;BME280;35974;47.752;10.290;2023-04-25T06:24:25;93192.09;;;6.32;100.00
50093;BME280;35974;47.752;10.290;2023-04-25T06:26:51;93180.47;;;6.35;100.00
50093;BME280;35974;47.752;10.290;2023-04-25T06:29:18;93182.91;;;6.43;100.00
50093;BME280;35974;47.752;10.290;2023-04-25T06:31:45;93193.50;;;6.41;100.00
50093;BME280;35974;47.752;10.290;2023-04-25T06:34:11;93180.53;;;6.48;100.00
50093;BME280;35974;47.752;10.290;2023-04-25T06:36:37;93175.75;;;6.45;100.00
50093;BME280;35974;47.752;10.290;2023-04-25T06:39:04;93177.16;;;6.54;100.00
50093;BME280;35974;47.752;10.290;2023-04-25T06:41:49;93178.56;;;6.64;100.00
50093;BME280;35974;47.752;10.290;2023-04-25T06:44:23;93171.34;;;6.52;100.00
50093;BME280;35974;47.752;10.290;2023-04-25T06:46:52;93178.19;;;6.67;100.00
50093;BME280;35974;47.752;10.290;2023-04-25T06:49:18;93177.34;;;6.59;100.00
50093;BME280;35974;47.752;10.290;2023-04-25T06:51:44;93180.13;;;6.51;100.00
50093;BME280;35974;47.752;10.290;2023-04-25T06:54:11;93170.56;;;6.58;100.00
50093;BME280;35974;47.752;10.290;2023-04-25T06:56:37;93171.16;;;6.60;100.00
50093;BME280;35974;47.752;10.290;2023-04-25T06:59:04;93163.78;;;6.71;100.00
50093;BME280;35974;47.752;10.290;2023-04-25T07:01:30;93159.94;;;6.47;100.00
50093;BME280;35974;47.752;10.290;2023-04-25T07:03:57;93166.94;;;6.46;100.00
50093;BME280;35974;47.752;10.290;2023-04-25T07:06:23;93159.41;;;6.65;100.00
50093;BME280;35974;47.752;10.290;2023-04-25T07:08:51;93159.41;;;6.85;100.00
50093;BME280;35974;47.752;10.290;2023-04-25T07:11:18;93158.63;;;6.84;100.00
50093;BME280;35974;47.752;10.290;2023-04-25T07:13:44;93169.03;;;6.84;100.00
50093;BME280;35974;47.752;10.290;2023-04-25T07:16:11;93162.41;;;6.75;100.00
50093;BME280;35974;47.752;10.290;2023-04-25T07:18:37;93155.44;;;6.95;100.00
50093;BME280;35974;47.752;10.290;2023-04-25T07:21:03;93158.25;;;7.01;100.00
50093;BME280;35974;47.752;10.290;2023-04-25T07:23:30;93153.44;;;6.97;100.00
50093;BME280;35974;47.752;10.290;2023-04-25T07:25:56;93153.44;;;7.11;100.00
50093;BME280;35974;47.752;10.290;2023-04-25T07:28:23;93147.03;;;7.27;100.00
50093;BME280;35974;47.752;10.290;2023-04-25T07:30:49;93148.63;;;7.35;100.00
50093;BME280;35974;47.752;10.290;2023-04-25T07:33:15;93159.03;;;7.21;100.00
50093;BME280;35974;47.752;10.290;2023-04-25T07:35:42;93148.22;;;7.24;100.00
50093;BME280;35974;47.752;10.290;2023-04-25T07:38:08;93146.19;;;7.53;100.00
50093;BME280;35974;47.752;10.290;2023-04-25T07:40:36;93154.22;;;7.45;100.00
50093;BME280;35974;47.752;10.290;2023-04-25T07:43:02;93152.00;;;7.68;100.00
50093;BME280;35974;47.752;10.290;2023-04-25T07:45:35;93154.19;;;7.58;100.00
50093;BME280;35974;47.752;10.290;2023-04-25T07:48:01;93146.13;;;7.80;100.00
50093;BME280;35974;47.752;10.290;2023-04-25T07:50:29;93150.13;;;7.89;100.00
50093;BME280;35974;47.752;10.290;2023-04-25T07:52:55;93142.09;;;7.91;100.00
50093;BME280;35974;47.752;10.290;2023-04-25T07:55:21;93150.44;;;8.19;100.00
50093;BME280;35974;47.752;10.290;2023-04-25T07:57:48;93147.63;;;8.21;100.00
50093;BME280;35974;47.752;10.290;2023-04-25T08:00:16;93148.78;;;8.25;99.46
50093;BME280;35974;47.752;10.290;2023-04-25T08:02:43;93146.00;;;8.20;100.00
50093;BME280;35974;47.752;10.290;2023-04-25T08:05:10;93146.47;;;8.03;100.00
50093;BME280;35974;47.752;10.290;2023-04-25T08:07:40;93148.09;;;8.04;100.00
50093;BME280;35974;47.752;10.290;2023-04-25T08:10:07;93150.44;;;8.19;100.00
50093;BME280;35974;47.752;10.290;2023-04-25T08:12:34;93146.75;;;8.40;98.36
50093;BME280;35974;47.752;10.290;2023-04-25T08:15:00;93149.59;;;8.32;98.97
50093;BME280;35974;47.752;10.290;2023-04-25T08:17:27;93153.97;;;8.38;95.86
50093;BME280;35974;47.752;10.290;2023-04-25T08:19:53;93146.69;;;8.54;97.20
50093;BME280;35974;47.752;10.290;2023-04-25T08:22:20;93148.81;;;8.70;95.47
50093;BME280;35974;47.752;10.290;2023-04-25T08:24:46;93158.16;;;9.16;94.72
50093;BME280;35974;47.752;10.290;2023-04-25T08:27:12;93146.47;;;9.44;97.17
50093;BME280;35974;47.752;10.290;2023-04-25T08:29:39;93141.13;;;9.58;93.44
50093;BME280;35974;47.752;10.290;2023-04-25T08:32:05;93151.78;;;9.81;87.04
50093;BME280;35974;47.752;10.290;2023-04-25T08:34:31;93149.41;;;9.73;89.37
50093;BME280;35974;47.752;10.290;2023-04-25T08:36:58;93152.78;;;9.80;90.44
50093;BME280;35974;47.752;10.290;2023-04-25T08:39:24;93155.00;;;9.33;89.06
50093;BME280;35974;47.752;10.290;2023-04-25T08:41:50;93158.06;;;9.48;89.89
50093;BME280;35974;47.752;10.290;2023-04-25T08:44:18;93165.16;;;9.16;94.36
50093;BME280;35974;47.752;10.290;2023-04-25T08:46:45;93173.88;;;9.03;90.56
50093;BME280;35974;47.752;10.290;2023-04-25T08:49:16;93178.28;;;9.34;90.95
50093;BME280;35974;47.752;10.290;2023-04-25T08:51:45;93176.47;;;9.10;95.20
50093;BME280;35974;47.752;10.290;2023-04-25T08:54:15;93176.59;;;8.90;96.66
50093;BME280;35974;47.752;10.290;2023-04-25T08:57:03;93185.97;;;8.59;97.62
50093;BME280;35974;47.752;10.290;2023-04-25T08:59:30;93183.66;;;8.37;98.16
50093;BME280;35974;47.752;10.290;2023-04-25T09:01:57;93186.13;;;8.19;100.00
50093;BME280;35974;47.752;10.290;2023-04-25T09:04:24;93186.22;;;7.79;100.00
50093;BME280;35974;47.752;10.290;2023-04-25T09:06:50;93195.03;;;7.78;100.00
50093;BME280;35974;47.752;10.290;2023-04-25T09:09:17;93197.22;;;7.81;100.00
50093;BME280;35974;47.752;10.290;2023-04-25T09:11:44;93199.38;;;8.17;100.00
50093;BME280;35974;47.752;10.290;2023-04-25T09:16:45;93208.66;;;7.86;99.52
50093;BME280;35974;47.752;10.290;2023-04-25T09:19:23;93235.09;;;7.70;100.00
50093;BME280;35974;47.752;10.290;2023-04-25T09:22:05;93248.06;;;7.03;100.00
50093;BME280;35974;47.752;10.290;2023-04-25T09:24:33;93254.69;;;7.19;100.00
50093;BME280;35974;47.752;10.290;2023-04-25T09:26:59;93263.06;;;6.94;100.00
50093;BME280;35974;47.752;10.290;2023-04-25T09:29:40;93267.72;;;6.57;100.00
50093;BME280;35974;47.752;10.290;2023-04-25T09:34:41;93286.47;;;6.46;100.00
50093;BME280;35974;47.752;10.290;2023-04-25T09:37:11;93297.59;;;6.33;100.00
50093;BME280;35974;47.752;10.290;2023-04-25T09:39:38;93301.28;;;6.46;100.00
50093;BME280;35974;47.752;10.290;2023-04-25T09:42:04;93299.94;;;6.21;100.00
50093;BME280;35974;47.752;10.290;2023-04-25T09:44:31;93306.53;;;5.96;100.00
50093;BME280;35974;47.752;10.290;2023-04-25T09:46:57;93313.41;;;5.75;100.00
50093;BME280;35974;47.752;10.290;2023-04-25T09:49:25;93313.16;;;5.27;100.00
50093;BME280;35974;47.752;10.290;2023-04-25T09:51:56;93312.97;;;5.50;100.00
50093;BME280;35974;47.752;10.290;2023-04-25T09:54:25;93317.63;;;5.33;100.00
50093;BME280;35974;47.752;10.290;2023-04-25T09:56:53;93324.09;;;5.22;100.00
50093;BME280;35974;47.752;10.290;2023-04-25T09:59:20;93322.81;;;5.33;100.00
50093;BME280;35974;47.752;10.290;2023-04-25T10:01:47;93319.91;;;4.85;100.00
50093;BME280;35974;47.752;10.290;2023-04-25T10:04:15;93322.53;;;5.06;100.00
50093;BME280;35974;47.752;10.290;2023-04-25T10:06:44;93322.03;;;5.18;100.00
50093;BME280;35974;47.752;10.290;2023-04-25T10:09:12;93317.31;;;4.85;100.00
50093;BME280;35974;47.752;10.290;2023-04-25T10:11:39;93318.44;;;4.97;100.00
50093;BME280;35974;47.752;10.290;2023-04-25T10:14:05;93325.13;;;5.28;100.00
50093;BME280;35974;47.752;10.290;2023-04-25T10:16:32;93319.88;;;5.21;100.00
50093;BME280;35974;47.752;10.290;2023-04-25T10:18:58;93313.09;;;5.20;100.00
50093;BME280;35974;47.752;10.290;2023-04-25T10:21:24;93311.78;;;5.09;100.00
50093;BME280;35974;47.752;10.290;2023-04-25T10:23:53;93308.09;;;5.40;100.00
50093;BME280;35974;47.752;10.290;2023-04-25T10:26:34;93312.19;;;5.49;100.00
50093;BME280;35974;47.752;10.290;2023-04-25T10:29:01;93306.75;;;5.44;100.00
50093;BME280;35974;47.752;10.290;2023-04-25T10:31:29;93302.28;;;5.17;100.00
50093;BME280;35974;47.752;10.290;2023-04-25T10:33:57;93303.75;;;5.69;100.00
50093;BME280;35974;47.752;10.290;2023-04-25T10:36:23;93303.63;;;5.34;100.00
50093;BME280;35974;47.752;10.290;2023-04-25T10:38:50;93301.91;;;5.63;100.00
50093;BME280;35974;47.752;10.290;2023-04-25T10:41:17;93294.34;;;5.68;100.00
50093;BME280;35974;47.752;10.290;2023-04-25T10:43:48;93289.38;;;5.95;100.00
50093;BME280;35974;47.752;10.290;2023-04-25T10:46:26;93288.31;;;5.61;100.00
50093;BME280;35974;47.752;10.290;2023-04-25T10:48:53;93296.94;;;5.68;100.00
50093;BME280;35974;47.752;10.290;2023-04-25T10:54:03;93299.63;;;6.38;100.00
50093;BME280;35974;47.752;10.290;2023-04-25T10:56:31;93305.59;;;6.32;100.00
50093;BME280;35974;47.752;10.290;2023-04-25T11:04:01;93322.19;;;5.53;100.00
50093;BME280;35974;47.752;10.290;2023-04-25T11:09:00;93323.25;;;5.00;100.00
50093;BME280;35974;47.752;10.290;2023-04-25T11:11:28;93330.47;;;4.68;100.00
50093;BME280;35974;47.752;10.290;2023-04-25T11:13:54;93335.75;;;5.11;100.00
50093;BME280;35974;47.752;10.290;2023-04-25T11:16:21;93316.25;;;5.16;100.00
50093;BME280;35974;47.752;10.290;2023-04-25T11:18:56;93325.03;;;5.58;100.00
50093;BME280;35974;47.752;10.290;2023-04-25T11:21:27;93320.69;;;5.65;100.00
50093;BME280;35974;47.752;10.290;2023-04-25T11:24:04;93310.03;;;5.81;100.00
50093;BME280;35974;47.752;10.290;2023-04-25T11:26:32;93321.50;;;5.65;100.00
50093;BME280;35974;47.752;10.290;2023-04-25T11:29:03;93319.31;;;5.47;100.00
50093;BME280;35974;47.752;10.290;2023-04-25T11:31:36;93313.88;;;5.85;100.00
50093;BME280;35974;47.752;10.290;2023-04-25T11:34:05;93333.91;;;5.48;100.00
50093;BME280;35974;47.752;10.290;2023-04-25T11:36:45;93337.06;;;5.65;100.00
50093;BME280;35974;47.752;10.290;2023-04-25T11:42:06;93335.47;;;5.64;100.00
50093;BME280;35974;47.752;10.290;2023-04-25T11:44:45;93334.41;;;5.59;100.00
50093;BME280;35974;47.752;10.290;2023-04-25T11:47:17;93330.81;;;5.60;100.00
50093;BME280;35974;47.752;10.290;2023-04-25T11:49:43;93346.41;;;5.60;100.00
50093;BME280;35974;47.752;10.290;2023-04-25T11:52:10;93342.44;;;5.64;100.00
50093;BME280;35974;47.752;10.290;2023-04-25T11:54:55;93355.16;;;5.59;100.00
50093;BME280;35974;47.752;10.290;2023-04-25T11:57:30;93349.00;;;5.38;100.00
50093;BME280;35974;47.752;10.290;2023-04-25T12:00:04;93346.41;;;5.60;100.00
50093;BME280;35974;47.752;10.290;2023-04-25T12:02:31;93342.06;;;5.89;100.00
50093;BME280;35974;47.752;10.290;2023-04-25T12:05:17;93346.78;;;6.35;100.00
50093;BME280;35974;47.752;10.290;2023-04-25T12:08:13;93353.59;;;6.36;100.00
50093;BME280;35974;47.752;10.290;2023-04-25T12:10:59;93347.84;;;6.12;100.00
50093;BME280;35974;47.752;10.290;2023-04-25T12:13:26;93355.22;;;6.37;100.00
50093;BME280;35974;47.752;10.290;2023-04-25T12:15:54;93351.97;;;6.35;100.00
50093;BME280;35974;47.752;10.290;2023-04-25T12:18:22;93362.94;;;6.58;100.00
50093;BME280;35974;47.752;10.290;2023-04-25T12:20:49;93364.63;;;6.10;100.00
50093;BME280;35974;47.752;10.290;2023-04-25T12:23:15;93356.38;;;6.34;100.00
50093;BME280;35974;47.752;10.290;2023-04-25T12:25:42;93340.50;;;6.51;100.00
50093;BME280;35974;47.752;10.290;2023-04-25T12:28:12;93349.22;;;7.26;100.00
50093;BME280;35974;47.752;10.290;2023-04-25T12:30:57;93351.69;;;7.61;100.00
50093;BME280;35974;47.752;10.290;2023-04-25T12:33:25;93349.63;;;7.37;100.00
50093;BME280;35974;47.752;10.290;2023-04-25T12:36:04;93357.41;;;7.17;100.00
50093;BME280;35974;47.752;10.290;2023-04-25T12:38:39;93368.59;;;6.75;100.00
50093;BME280;35974;47.752;10.290;2023-04-25T12:41:07;93363.75;;;6.66;100.00
50093;BME280;35974;47.752;10.290;2023-04-25T12:43:52;93371.31;;;6.54;100.00
50093;BME280;35974;47.752;10.290;2023-04-25T12:46:27;93372.47;;;6.51;100.00
50093;BME280;35974;47.752;10.290;2023-04-25T12:48:59;93380.47;;;7.40;100.00
50093;BME280;35974;47.752;10.290;2023-04-25T12:54:31;93370.94;;;6.64;100.00
50093;BME280;35974;47.752;10.290;2023-04-25T12:56:58;93380.19;;;7.14;100.00
50093;BME280;35974;47.752;10.290;2023-04-25T12:59:28;93377.94;;;7.05;100.00
50093;BME280;35974;47.752;10.290;2023-04-25T13:01:54;93377.84;;;6.78;100.00
50093;BME280;35974;47.752;10.290;2023-04-25T13:04:21;93382.53;;;6.61;100.00
50093;BME280;35974;47.752;10.290;2023-04-25T13:06:47;93383.03;;;6.78;100.00
50093;BME280;35974;47.752;10.290;2023-04-25T13:09:14;93382.28;;;6.91;100.00
50093;BME280;35974;47.752;10.290;2023-04-25T13:11:45;93369.22;;;7.32;100.00
50093;BME280;35974;47.752;10.290;2023-04-25T13:14:12;93376.72;;;7.62;100.00
50093;BME280;35974;47.752;10.290;2023-04-25T13:16:53;93380.66;;;7.31;100.00